METAR Data
IDs: Format: Raw Decoded Include TAF

Data at: 0129 UTC 19 Oct 2021

PAYA 190053Z AUTO 00000KT 10SM FEW065 OVC085 08/M04 A2966 RMK AO2 SLP045 T00781039 TSNO $
PAYA 182353Z AUTO 06004KT 10SM OVC085 08/M03 A2967 RMK AO2 SLP047 T00831028 10083 20050 58008 TSNO $
PAYA 182253Z AUTO 08004KT 10SM OVC080 08/M04 A2968 RMK AO2 SLP051 T00831039 TSNO $
PAYA 182153Z AUTO 13003KT 10SM OVC080 08/M04 A2969 RMK AO2 SLP053 T00781039 TSNO $
PAYA 182053Z AUTO 12004KT 10SM OVC070 07/M04 A2969 RMK AO2 SLP055 T00721044 53009 TSNO $
PAYA 181953Z AUTO 08006KT 10SM OVC080 07/M06 A2968 RMK AO2 SLP050 T00721056 TSNO $
PAYA 181853Z AUTO 07005KT 10SM BKN095 06/M05 A2968 RMK AO2 SLP049 T00611050 TSNO $
PAYA 181753Z AUTO VRB04KT 10SM CLR 06/M05 A2967 RMK AO2 SLP046 T00561050 10067 20044 53006 TSNO $
PAYA 181653Z AUTO 09006KT 10SM FEW100 04/M06 A2966 RMK AO2 SLP044 T00441056 TSNO $
PAYA 181553Z AUTO 06007KT 10SM CLR 07/M08 A2965 RMK AO2 SLP040 T00671078 TSNO $
PAYA 181453Z AUTO 05007KT 10SM BKN050 06/M07 A2965 RMK AO2 SLP040 T00611072 56007 TSNO $
PAYA 181353Z AUTO 07006KT 10SM BKN055 06/M07 A2965 RMK AO2 SLP041 T00561067 TSNO $
PAYA 181253Z AUTO 06007KT 10SM OVC050 05/M06 A2966 RMK AO2 SLP043 T00501056 TSNO $
PAYA 181153Z AUTO 06006KT 10SM BKN060 05/M07 A2967 RMK AO2 SLP047 70001 T00501067 10050 20028 58010 TSNO $
PAYA 181053Z AUTO 06006KT 10SM BKN050 04/M06 A2969 RMK AO2 SLP053 T00391056 TSNO $
PAYA 180953Z AUTO 06007KT 10SM FEW120 05/M06 A2970 RMK AO2 SLP056 T00501061 TSNO $
PAYA 180853Z AUTO 06007KT 10SM CLR 04/M06 A2970 RMK AO2 SLP057 T00441056 400501022 58002 TSNO $
PAYA 180753Z AUTO 06006KT 10SM FEW043 04/M04 A2971 RMK AO2 SLP061 T00391044 TSNO $
PAYA 180653Z AUTO 08004KT 10SM CLR 04/M04 A2971 RMK AO2 SLP061 T00391044 TSNO $
PAYA 180553Z AUTO 05006KT 10SM OVC040 04/M04 A2970 RMK AO2 SLP058 T00391044 10050 20028 58009 TSNO $
PAYA 180453Z AUTO 05006KT 10SM CLR 03/M03 A2972 RMK AO2 SLP064 T00331033 TSNO $
PAYA 180353Z AUTO 06008KT 10SM CLR 03/M03 A2973 RMK AO2 SLP067 T00331033 TSNO $
PAYA 180253Z AUTO 07008KT 10SM SCT040 03/M03 A2973 RMK AO2 SLP067 T00331028 56008 TSNO $
PAYA 180153Z AUTO 07006KT 10SM FEW036 BKN049 04/M02 A2974 RMK AO2 SLP069 T00391022 TSNO $
PAYA 180053Z AUTO 07008KT 10SM FEW049 04/M02 A2974 RMK AO2 SLP070 T00441022 TSNO $
PAYA 172353Z AUTO 07008KT 10SM BKN047 05/M02 A2975 RMK AO2 SLP075 T00501022 10050 20011 58011 TSNO $
PAYA 172253Z AUTO 07008KT 10SM CLR 04/M02 A2976 RMK AO2 SLP079 T00441017 TSNO $
PAYA 172153Z AUTO 07007KT 10SM CLR 04/M02 A2978 RMK AO2 SLP084 T00441017 TSNO $
PAYA 172053Z AUTO 07006KT 10SM CLR 04/M02 A2979 RMK AO2 SLP086 T00391022 58007 TSNO $
PAYA 171953Z AUTO 07004KT 10SM CLR 03/M02 A2980 RMK AO2 SLP090 T00281017 TSNO $
PAYA 171853Z AUTO 08005KT 10SM CLR 02/M02 A2980 RMK AO2 SLP092 T00171017 TSNO $
PAYA 171753Z AUTO 08003KT 10SM FEW038 OVC055 01/M02 A2981 RMK AO2 SLP093 60001 I6000 T00111022 10011 21011 55008 TSNO $
PAYA 171653Z AUTO 05003KT 10SM FEW040 BKN060 01/M02 A2980 RMK AO2 SLP092 T00061022 TSNO $
PAYA 171553Z AUTO 06004KT 10SM OVC040 00/M02 A2982 RMK AO2 SLP096 T00001022 TSNO $
PAYA 171453Z AUTO 07004KT 10SM BKN038 OVC060 00/M02 A2983 RMK AO2 SLP101 60001 I3000 T00001022 56013 TSNO $
PAYA 171353Z AUTO 08005KT 10SM FEW030 SCT036 00/M02 A2984 RMK AO2 RAB03E22UPB04E07FZRAE03 SLP104 P0001 I1000 T00001022 TSNO $